Time;durP1;ratioP1;P1;durP2;ratioP2;P2;SDS_P1;SDS_P2;PMS_P1;PMS_P2;Temp;Humidity;BMP_temperature;BMP_pressure;BME280_temperature;BME280_humidity;BME280_pressure;Samples;Min_cycle;Max_cycle;Signal;HPM_P1;HPM_P2
2022/11/09 00:00:14;;;;;;;0.00;0.00;;;;;;;17.63;66.30;100449.06;2079684;28;20089;-67
2022/11/09 00:01:17;;;;;;;0.00;0.00;;;;;;;17.62;66.50;100445.53;2079313;28;20060;-67
2022/11/09 00:02:20;;;;;;;0.00;0.00;;;;;;;17.62;66.34;100442.81;2074777;28;20053;-67
2022/11/09 00:03:22;;;;;;;0.00;0.00;;;;;;;17.63;66.32;100443.59;2074966;28;20081;-67
2022/11/09 00:04:24;;;;;;;0.00;0.00;;;;;;;17.63;66.70;100449.06;2074872;28;20076;-67
2022/11/09 00:05:26;;;;;;;0.00;0.00;;;;;;;17.64;66.66;100450.59;2074438;28;20049;-67
2022/11/09 00:06:30;;;;;;;0.00;0.00;;;;;;;17.64;66.69;100445.13;2073766;28;20083;-67
2022/11/09 00:07:31;;;;;;;0.00;0.00;;;;;;;17.64;66.40;100448.66;2078656;28;20520;-67
2022/11/09 00:08:36;;;;;;;0.00;0.00;;;;;;;17.65;66.56;100441.22;2074884;28;20505;-67
2022/11/09 00:09:38;;;;;;;0.00;0.00;;;;;;;17.64;66.54;100445.13;2077036;28;20078;-67
2022/11/09 00:10:42;;;;;;;0.00;0.00;;;;;;;17.65;66.50;100436.56;2075016;28;20058;-67
2022/11/09 00:11:45;;;;;;;0.00;0.00;;;;;;;17.64;66.42;100439.69;2080189;28;20104;-67
2022/11/09 00:12:46;;;;;;;0.00;0.00;;;;;;;17.64;66.53;100434.22;2075101;28;20064;-67
2022/11/09 00:13:49;;;;;;;0.00;0.00;;;;;;;17.65;66.47;100435.75;2077311;28;20089;-67
2022/11/09 00:14:51;;;;;;;0.00;0.00;;;;;;;17.65;66.35;100435.75;2073284;28;20497;-67
2022/11/09 00:15:58;;;;;;;0.00;0.00;;;;;;;17.64;66.38;100440.47;2074678;28;20056;-67
2022/11/09 00:17:00;;;;;;;0.00;0.00;;;;;;;17.62;66.54;100428.38;2075081;28;20073;-67
2022/11/09 00:18:03;;;;;;;0.00;0.00;;;;;;;17.65;66.52;100435.75;2074480;28;20042;-67
2022/11/09 00:19:05;;;;;;;0.00;0.00;;;;;;;17.64;66.53;100436.94;2077947;28;20057;-67
2022/11/09 00:20:08;;;;;;;0.00;0.00;;;;;;;17.65;66.65;100436.56;2078403;28;20050;-67
2022/11/09 00:21:13;;;;;;;0.00;0.00;;;;;;;17.66;66.50;100434.59;2073129;28;20072;-67
2022/11/09 00:22:14;;;;;;;0.00;0.00;;;;;;;17.64;66.43;100428.75;2076137;28;20116;-67
2022/11/09 00:23:17;;;;;;;0.00;0.00;;;;;;;17.64;66.37;100431.50;2073654;28;20049;-67
2022/11/09 00:24:20;;;;;;;0.00;0.00;;;;;;;17.63;66.49;100427.22;2074153;28;20062;-67
2022/11/09 00:25:23;;;;;;;0.00;0.00;;;;;;;17.65;66.33;100435.75;2074697;28;20045;-67
2022/11/09 00:26:26;;;;;;;0.00;0.00;;;;;;;17.66;66.48;100431.88;2072494;28;20411;-67
2022/11/09 00:27:29;;;;;;;0.00;0.00;;;;;;;17.65;66.67;100442.00;2072736;28;20054;-67
2022/11/09 00:28:31;;;;;;;0.00;0.00;;;;;;;17.65;66.58;100427.56;2076201;28;20065;-67
2022/11/09 00:29:34;;;;;;;0.00;0.00;;;;;;;17.66;66.40;100426.41;2077368;28;20037;-67
2022/11/09 00:30:35;;;;;;;0.00;0.00;;;;;;;17.66;66.48;100431.88;2072573;28;22114;-67
2022/11/09 00:31:38;;;;;;;0.00;0.00;;;;;;;17.65;66.15;100431.09;2073678;28;20045;-67
2022/11/09 00:32:41;;;;;;;0.00;0.00;;;;;;;17.66;66.57;100426.41;2073470;28;20742;-67
2022/11/09 00:33:48;;;;;;;0.00;0.00;;;;;;;17.66;66.45;100426.41;2075437;28;20065;-67
2022/11/09 00:34:49;;;;;;;0.00;0.00;;;;;;;17.64;66.61;100426.03;2078584;28;20788;-67
2022/11/09 00:35:52;;;;;;;0.00;0.00;;;;;;;17.62;66.43;100420.97;2076853;28;20058;-67
2022/11/09 00:36:54;;;;;;;0.00;0.00;;;;;;;17.66;66.55;100426.41;2074819;28;20748;-66
2022/11/09 00:37:56;;;;;;;0.00;0.00;;;;;;;17.66;66.28;100431.88;2075302;28;20073;-65
2022/11/09 00:38:59;;;;;;;0.00;0.00;;;;;;;17.67;66.33;100422.50;2077919;28;20125;-66
2022/11/09 00:40:02;;;;;;;0.00;0.00;;;;;;;17.65;66.17;100428.34;2074219;28;20049;-67
2022/11/09 00:41:05;;;;;;;0.00;0.00;;;;;;;17.64;66.10;100426.03;2075866;28;20046;-65
2022/11/09 00:42:09;;;;;;;0.00;0.00;;;;;;;17.67;66.31;100430.69;2074492;28;20124;-66
2022/11/09 00:43:11;;;;;;;0.00;0.00;;;;;;;17.66;66.29;100426.41;2077090;28;20053;-66
2022/11/09 00:44:15;;;;;;;0.00;0.00;;;;;;;17.66;66.13;100420.97;2076660;28;20085;-66
2022/11/09 00:45:18;;;;;;;0.00;0.00;;;;;;;17.65;66.30;100427.56;2086477;28;20049;-66
2022/11/09 00:46:21;;;;;;;0.00;0.00;;;;;;;17.66;66.16;100420.97;2077039;28;20045;-66
2022/11/09 00:47:24;;;;;;;0.00;0.00;;;;;;;17.65;66.21;100422.91;2071608;28;20165;-66
2022/11/09 00:48:27;;;;;;;0.00;0.00;;;;;;;17.66;66.25;100431.88;2078566;28;20057;-66
2022/11/09 00:49:29;;;;;;;0.00;0.00;;;;;;;17.66;66.15;100437.34;2074775;28;20128;-66
2022/11/09 00:50:32;;;;;;;0.00;0.00;;;;;;;17.67;66.14;100433.41;2075865;28;20054;-66
2022/11/09 00:51:34;;;;;;;0.00;0.00;;;;;;;17.66;66.08;100426.41;2073251;28;20055;-66
2022/11/09 00:52:37;;;;;;;0.00;0.00;;;;;;;17.66;65.97;100432.63;2071391;28;20053;-66
2022/11/09 00:53:39;;;;;;;0.00;0.00;;;;;;;17.65;66.15;100424.84;2075610;28;20066;-66
2022/11/09 00:54:41;;;;;;;0.00;0.00;;;;;;;17.66;66.26;100426.41;2073007;28;20064;-66
2022/11/09 00:55:53;;;;;;;0.00;0.00;;;;;;;17.63;66.15;100425.25;2080183;28;20100;-66
2022/11/09 00:56:55;;;;;;;;;;;;;;;17.46;66.95;100425.31;2085998;28;20053;-66
2022/11/09 00:57:59;;;;;;;0.00;0.00;;;;;;;17.57;66.27;100432.28;2077824;28;20015;-66
2022/11/09 00:59:01;;;;;;;0.00;0.00;;;;;;;17.60;66.37;100425.28;2065561;28;20057;-66
2022/11/09 01:00:04;;;;;;;0.00;0.00;;;;;;;17.61;66.47;100433.06;2073928;28;20053;-66
2022/11/09 01:01:10;;;;;;;0.00;0.00;;;;;;;17.62;66.06;100428.38;2076545;28;20066;-66
2022/11/09 01:02:11;;;;;;;0.00;0.00;;;;;;;17.61;66.40;100424.09;2074964;28;20049;-66
2022/11/09 01:03:14;;;;;;;0.00;0.00;;;;;;;17.63;66.29;100427.22;2077465;28;20168;-66
2022/11/09 01:04:16;;;;;;;0.00;0.00;;;;;;;17.63;66.31;100427.22;2075183;28;20399;-65
2022/11/09 01:05:19;;;;;;;0.00;0.00;;;;;;;17.62;66.43;100420.19;2073763;28;20524;-66
2022/11/09 01:06:24;;;;;;;0.00;0.00;;;;;;;17.64;66.27;100424.09;2084293;28;20045;-66
2022/11/09 01:07:27;;;;;;;0.00;0.00;;;;;;;17.63;66.27;100421.75;2082559;28;20727;-66
2022/11/09 01:08:29;;;;;;;0.00;0.00;;;;;;;17.62;66.30;100422.91;2072731;28;20061;-66
2022/11/09 01:09:32;;;;;;;0.00;0.00;;;;;;;17.63;66.36;100427.97;2072575;28;20065;-66
2022/11/09 01:10:34;;;;;;;0.00;0.00;;;;;;;17.64;66.07;100428.75;2076300;28;20053;-66
2022/11/09 01:11:36;;;;;;;0.00;0.00;;;;;;;17.64;66.08;100423.31;2077952;28;20425;-66
2022/11/09 01:12:38;;;;;;;0.00;0.00;;;;;;;17.64;66.22;100428.75;2075073;28;20089;-66
2022/11/09 01:13:44;;;;;;;0.00;0.00;;;;;;;17.64;65.81;100426.81;2074032;28;20050;-66
2022/11/09 01:14:46;;;;;;;0.00;0.00;;;;;;;17.63;66.20;100425.25;2077059;28;20064;-66
2022/11/09 01:15:50;;;;;;;0.00;0.00;;;;;;;17.62;65.96;100425.63;2075994;28;20056;-66
2022/11/09 01:16:52;;;;;;;0.00;0.00;;;;;;;17.64;65.88;100423.31;2072263;28;20104;-66
2022/11/09 01:17:55;;;;;;;0.00;0.00;;;;;;;17.63;66.12;100419.78;2072515;28;20440;-66
2022/11/09 01:19:00;;;;;;;0.00;0.00;;;;;;;17.64;65.93;100428.75;2072858;28;20038;-66
2022/11/09 01:20:03;;;;;;;0.00;0.00;;;;;;;17.63;66.06;100422.50;2078320;28;20397;-66
2022/11/09 01:21:07;;;;;;;0.00;0.00;;;;;;;17.64;66.08;100426.81;2076072;28;20068;-66
2022/11/09 01:22:10;;;;;;;0.00;0.00;;;;;;;17.63;65.97;100421.75;2074023;28;20436;-66
2022/11/09 01:23:14;;;;;;;0.00;0.00;;;;;;;17.65;65.89;100413.91;2072715;28;20049;-67
2022/11/09 01:24:17;;;;;;;0.00;0.00;;;;;;;17.63;66.27;100425.25;2077925;28;20119;-66
2022/11/09 01:25:18;;;;;;;0.00;0.00;;;;;;;17.63;66.11;100416.28;2075264;28;20413;-66
2022/11/09 01:26:22;;;;;;;0.00;0.00;;;;;;;17.64;66.13;100428.75;2075035;28;20060;-66
2022/11/09 01:27:25;;;;;;;0.00;0.00;;;;;;;17.63;66.12;100425.25;2068692;28;20805;-66
2022/11/09 01:28:28;;;;;;;0.00;0.00;;;;;;;17.64;66.20;100423.31;2074349;28;20106;-66
2022/11/09 01:29:31;;;;;;;0.00;0.00;;;;;;;17.64;66.09;100431.50;2071040;28;20057;-66
2022/11/09 01:30:35;;;;;;;0.00;0.00;;;;;;;17.64;66.20;100429.53;2069066;28;20105;-66
2022/11/09 01:31:37;;;;;;;0.00;0.00;;;;;;;17.63;66.16;100427.22;2076419;28;20049;-66
2022/11/09 01:32:39;;;;;;;0.00;0.00;;;;;;;17.64;65.96;100434.22;2073536;28;20061;-67
2022/11/09 01:33:42;;;;;;;0.00;0.00;;;;;;;17.64;66.20;100434.22;2073903;28;20061;-67
2022/11/09 01:34:44;;;;;;;0.00;0.00;;;;;;;17.64;66.13;100431.50;2065607;28;20062;-66
2022/11/09 01:35:46;;;;;;;0.00;0.00;;;;;;;17.63;66.17;100433.44;2068279;28;20066;-67
2022/11/09 01:36:50;;;;;;;0.00;0.00;;;;;;;17.65;66.16;100433.03;2076020;28;20056;-67
2022/11/09 01:37:51;;;;;;;0.00;0.00;;;;;;;17.64;65.91;100431.50;2072651;28;20081;-67
2022/11/09 01:38:54;;;;;;;0.00;0.00;;;;;;;17.63;65.96;100429.94;2079003;28;20520;-67
2022/11/09 01:39:56;;;;;;;0.00;0.00;;;;;;;17.64;66.02;100434.22;2074953;28;20053;-67
2022/11/09 01:40:59;;;;;;;0.00;0.00;;;;;;;17.64;66.16;100429.53;2085453;28;20049;-66
2022/11/09 01:42:01;;;;;;;0.00;0.00;;;;;;;17.64;66.10;100423.31;2080252;28;20050;-66
2022/11/09 01:43:07;;;;;;;0.00;0.00;;;;;;;17.64;65.99;100421.34;2074320;28;20068;-67
2022/11/09 01:44:11;;;;;;;0.00;0.00;;;;;;;17.64;66.04;100423.31;2072561;28;20057;-67
2022/11/09 01:45:26;;;;;;;0.00;0.00;;;;;;;17.61;66.09;100426.81;2072437;28;20050;-67
2022/11/09 01:46:34;;;;;;;0.00;0.00;;;;;;;17.61;66.07;100426.81;2075429;28;20046;-67
2022/11/09 01:47:39;;;;;;;0.00;0.00;;;;;;;17.61;66.36;100429.56;2075785;28;20107;-67
2022/11/09 01:48:46;;;;;;;0.00;0.00;;;;;;;17.61;66.17;100419.44;2071660;28;20054;-66
2022/11/09 01:49:55;;;;;;;0.00;0.00;;;;;;;17.61;65.92;100421.38;2073966;28;20064;-66
2022/11/09 01:51:01;;;;;;;0.00;0.00;;;;;;;17.61;66.14;100424.88;2081632;28;20041;-66
2022/11/09 01:52:11;;;;;;;0.00;0.00;;;;;;;17.61;65.91;100424.88;2079512;28;20054;-66
2022/11/09 01:53:17;;;;;;;0.00;0.00;;;;;;;17.61;65.96;100418.63;2069718;28;20537;-66
2022/11/09 01:54:25;;;;;;;0.00;0.00;;;;;;;17.61;66.19;100418.63;2076079;28;20061;-66
2022/11/09 01:55:30;;;;;;;0.00;0.00;;;;;;;17.58;66.15;100419.44;2075059;28;20049;-66
2022/11/09 01:56:33;;;;;;;0.00;0.00;;;;;;;17.61;66.10;100416.69;2075780;28;20140;-66
2022/11/09 01:57:38;;;;;;;0.00;0.00;;;;;;;17.61;66.11;100418.63;2077640;28;20053;-66
2022/11/09 01:58:45;;;;;;;0.00;0.00;;;;;;;17.62;66.19;100425.63;2075194;28;20049;-66
2022/11/09 01:59:51;;;;;;;0.00;0.00;;;;;;;17.62;66.12;100420.19;2078266;28;20398;-66
2022/11/09 02:00:57;;;;;;;0.00;0.00;;;;;;;17.60;65.98;100417.09;2076338;28;20046;-67
2022/11/09 02:02:00;;;;;;;0.00;0.00;;;;;;;17.60;66.10;100417.84;2085075;28;20052;-67
2022/11/09 02:03:18;;;;;;;0.00;0.00;;;;;;;17.61;65.92;100418.63;2084110;28;20077;-67
2022/11/09 02:04:24;;;;;;;0.00;0.00;;;;;;;17.59;66.13;100415.53;2075042;28;20057;-67
2022/11/09 02:05:30;;;;;;;0.00;0.00;;;;;;;17.59;66.27;100420.97;2078033;28;20574;-67
2022/11/09 02:06:33;;;;;;;0.00;0.00;;;;;;;17.59;66.39;100404.59;2071930;28;20506;-66
2022/11/09 02:07:37;;;;;;;0.00;0.00;;;;;;;17.62;66.40;100412.00;2076017;28;20096;-67
2022/11/09 02:08:40;;;;;;;0.00;0.00;;;;;;;17.60;66.39;100412.38;2076266;28;20053;-67
2022/11/09 02:09:49;;;;;;;0.00;0.00;;;;;;;17.60;66.05;100415.13;2078516;28;20120;-67
2022/11/09 02:10:59;;;;;;;0.00;0.00;;;;;;;17.59;65.81;100410.06;2067333;28;20073;-67
2022/11/09 02:12:02;;;;;;;0.00;0.00;;;;;;;17.59;66.10;100407.31;2070843;28;20560;-67
2022/11/09 02:13:06;;;;;;;0.00;0.00;;;;;;;17.59;66.04;100413.56;2071550;28;20796;-67
2022/11/09 02:14:13;;;;;;;0.00;0.00;;;;;;;17.59;65.97;100413.56;2077862;28;20053;-67
2022/11/09 02:15:15;;;;;;;0.00;0.00;;;;;;;17.60;66.38;100417.09;2082101;28;20540;-67
2022/11/09 02:16:19;;;;;;;0.00;0.00;;;;;;;17.60;66.08;100417.09;2075593;28;20060;-67
2022/11/09 02:17:21;;;;;;;0.00;0.00;;;;;;;17.60;66.05;100417.09;2077996;28;20523;-67
2022/11/09 02:18:24;;;;;;;0.00;0.00;;;;;;;17.59;65.91;100416.31;2086063;28;20118;-66
2022/11/09 02:19:28;;;;;;;0.00;0.00;;;;;;;17.61;66.11;100418.63;2076646;28;20062;-67
2022/11/09 02:20:44;;;;;;;0.00;0.00;;;;;;;17.56;66.07;100417.09;2080398;28;20050;-67
2022/11/09 02:21:47;;;;;;;0.00;0.00;;;;;;;17.58;66.11;100416.69;2074361;28;20092;-66
2022/11/09 02:22:50;;;;;;;0.00;0.00;;;;;;;17.59;66.31;100416.31;2074914;28;20060;-67
2022/11/09 02:23:53;;;;;;;0.00;0.00;;;;;;;17.59;65.75;100416.31;2077258;28;20049;-67
2022/11/09 02:24:54;;;;;;;0.00;0.00;;;;;;;17.60;66.02;100417.09;2078006;28;20054;-67
2022/11/09 02:26:01;;;;;;;0.00;0.00;;;;;;;17.61;65.95;100407.72;2078278;28;20041;-67
2022/11/09 02:27:04;;;;;;;0.00;0.00;;;;;;;17.58;65.87;100414.72;2076829;28;20087;-67
2022/11/09 02:28:07;;;;;;;0.00;0.00;;;;;;;17.60;66.07;100417.84;2073658;28;20080;-67
2022/11/09 02:29:13;;;;;;;0.00;0.00;;;;;;;17.59;65.95;100421.75;2081353;28;20467;-67
2022/11/09 02:30:19;;;;;;;0.00;0.00;;;;;;;17.60;65.98;100423.31;2077426;28;20054;-67
2022/11/09 02:31:27;;;;;;;0.00;0.00;;;;;;;17.60;65.98;100428.78;2079532;28;20148;-67
2022/11/09 02:32:30;;;;;;;0.00;0.00;;;;;;;17.59;66.17;100426.44;2085098;28;20045;-67
2022/11/09 02:33:42;;;;;;;0.00;0.00;;;;;;;17.58;66.10;100431.09;2075303;28;20061;-66
2022/11/09 02:34:44;;;;;;;0.00;0.00;;;;;;;17.58;66.08;100435.81;2072480;28;20045;-67
2022/11/09 02:35:48;;;;;;;0.00;0.00;;;;;;;17.59;65.98;100434.63;2072631;28;20053;-67
2022/11/09 02:36:50;;;;;;;0.00;0.00;;;;;;;17.59;65.96;100429.97;2078080;28;20200;-67
2022/11/09 02:37:56;;;;;;;0.00;0.00;;;;;;;17.59;66.16;100424.50;2075008;28;20050;-67
2022/11/09 02:38:58;;;;;;;0.00;0.00;;;;;;;17.60;65.97;100428.78;2078834;28;20057;-67
2022/11/09 02:40:04;;;;;;;0.00;0.00;;;;;;;17.61;65.90;100424.09;2079154;28;20049;-67
2022/11/09 02:41:07;;;;;;;0.00;0.00;;;;;;;17.60;66.05;100423.31;2073598;28;20093;-66
2022/11/09 02:42:13;;;;;;;0.00;0.00;;;;;;;17.62;65.99;100431.09;2076113;28;20433;-66
2022/11/09 02:43:23;;;;;;;0.00;0.00;;;;;;;17.59;66.15;100426.44;2075582;28;20813;-66
2022/11/09 02:44:28;;;;;;;0.00;0.00;;;;;;;17.60;66.06;100425.28;2074447;28;20060;-66
2022/11/09 02:45:30;;;;;;;0.00;0.00;;;;;;;17.57;66.25;100415.91;2077332;28;20056;-66
2022/11/09 02:46:34;;;;;;;0.00;0.00;;;;;;;17.61;65.82;100418.63;2073365;28;20049;-66
2022/11/09 02:47:36;;;;;;;0.00;0.00;;;;;;;17.58;65.57;100419.44;2080408;28;20084;-66
2022/11/09 02:48:40;;;;;;;0.00;0.00;;;;;;;17.57;66.24;100415.13;2075328;28;20077;-66
2022/11/09 02:49:42;;;;;;;0.00;0.00;;;;;;;17.60;66.22;100414.38;2074813;28;20068;-66
2022/11/09 02:50:44;;;;;;;0.00;0.00;;;;;;;17.60;65.72;100414.38;2078447;28;20057;-66
2022/11/09 02:51:48;;;;;;;0.00;0.00;;;;;;;17.60;66.14;100417.84;2075354;28;20053;-66
2022/11/09 02:52:50;;;;;;;0.00;0.00;;;;;;;17.59;66.03;100410.06;2078060;28;20053;-66
2022/11/09 02:53:52;;;;;;;0.00;0.00;;;;;;;17.60;65.82;100414.38;2073086;28;20054;-66
2022/11/09 02:54:57;;;;;;;0.00;0.00;;;;;;;17.60;66.03;100417.09;2067486;28;20553;-66
2022/11/09 02:56:01;;;;;;;0.00;0.00;;;;;;;17.60;66.13;100411.63;2077048;28;20069;-66
2022/11/09 02:57:03;;;;;;;0.00;0.00;;;;;;;17.59;66.12;100416.31;2082659;28;20041;-66
2022/11/09 02:58:07;;;;;;;0.00;0.00;;;;;;;17.60;66.03;100411.63;2088314;28;20061;-66
2022/11/09 02:59:09;;;;;;;0.00;0.00;;;;;;;17.60;65.81;100417.09;2076702;28;20140;-66
2022/11/09 03:00:13;;;;;;;0.00;0.00;;;;;;;17.61;66.02;100418.63;2077643;28;20056;-66
2022/11/09 03:01:17;;;;;;;0.00;0.00;;;;;;;17.61;65.95;100418.63;2078111;28;20050;-66
2022/11/09 03:02:20;;;;;;;0.00;0.00;;;;;;;17.59;66.07;100415.53;2071984;28;20137;-66
2022/11/09 03:03:24;;;;;;;0.00;0.00;;;;;;;17.60;65.87;100419.81;2064430;28;20525;-67
2022/11/09 03:04:27;;;;;;;0.00;0.00;;;;;;;17.60;65.92;100412.38;2062674;28;20054;-67
2022/11/09 03:05:29;;;;;;;0.00;0.00;;;;;;;17.60;65.93;100420.56;2071720;28;20054;-67
2022/11/09 03:06:35;;;;;;;0.00;0.00;;;;;;;17.60;65.91;100417.09;2069828;28;20049;-67
2022/11/09 03:07:44;;;;;;;0.00;0.00;;;;;;;17.60;65.79;100403.44;2070464;28;20050;-67
2022/11/09 03:08:47;;;;;;;0.00;0.00;;;;;;;17.59;65.91;100415.53;2060509;28;20430;-67
2022/11/09 03:09:55;;;;;;;0.00;0.00;;;;;;;17.58;65.84;100413.97;2058644;28;20062;-66
2022/11/09 03:11:00;;;;;;;0.00;0.00;;;;;;;17.57;65.96;100418.66;2062361;28;20247;-67
2022/11/09 03:12:27;;;;;;;0.00;0.00;;;;;;;17.58;65.80;100417.47;2068363;28;20085;-67
2022/11/09 03:13:26;;;;;;;0.00;0.00;;;;;;;17.55;65.93;100406.59;2069031;28;20088;-67
2022/11/09 03:14:27;;;;;;;0.00;0.00;;;;;;;17.56;65.99;100413.59;2077352;28;20049;-67
2022/11/09 03:15:32;;;;;;;0.00;0.00;;;;;;;17.59;65.98;100412.78;2079477;28;20087;-67
2022/11/09 03:16:34;;;;;;;0.00;0.00;;;;;;;17.58;66.15;100425.66;2078469;28;20421;-67
2022/11/09 03:17:40;;;;;;;0.00;0.00;;;;;;;17.59;65.70;100426.44;2078519;28;20496;-67
2022/11/09 03:18:42;;;;;;;0.00;0.00;;;;;;;17.58;66.01;100422.16;2067497;28;20528;-67
2022/11/09 03:19:45;;;;;;;0.00;0.00;;;;;;;17.58;65.98;100425.66;2067038;28;20670;-67
2022/11/09 03:20:47;;;;;;;0.00;0.00;;;;;;;17.59;65.81;100431.91;2069484;28;20081;-67
2022/11/09 03:21:51;;;;;;;0.00;0.00;;;;;;;17.58;65.98;100431.09;2078651;28;20049;-67
2022/11/09 03:22:59;;;;;;;0.00;0.00;;;;;;;17.59;65.70;100429.16;2071782;28;20084;-67
2022/11/09 03:24:04;;;;;;;0.00;0.00;;;;;;;17.59;65.96;100429.16;2066658;28;20042;-67
2022/11/09 03:25:06;;;;;;;0.00;0.00;;;;;;;17.58;65.92;100424.88;2070931;28;20501;-67
2022/11/09 03:26:09;;;;;;;0.00;0.00;;;;;;;17.58;65.66;100427.63;2079466;28;20850;-67
2022/11/09 03:27:11;;;;;;;0.00;0.00;;;;;;;17.58;65.77;100430.34;2081405;28;20049;-67
2022/11/09 03:28:14;;;;;;;0.00;0.00;;;;;;;17.58;65.86;100422.91;2079080;28;20057;-67
2022/11/09 03:29:17;;;;;;;0.00;0.00;;;;;;;17.58;65.87;100419.44;2079206;28;20136;-67
2022/11/09 03:30:20;;;;;;;0.00;0.00;;;;;;;17.58;65.97;100422.91;2067435;28;20140;-67
2022/11/09 03:31:22;;;;;;;0.00;0.00;;;;;;;17.58;65.95;100416.69;2074997;28;20085;-67
2022/11/09 03:32:27;;;;;;;0.00;0.00;;;;;;;17.58;65.98;100422.91;2076910;28;20952;-67
2022/11/09 03:33:29;;;;;;;0.00;0.00;;;;;;;17.58;65.90;100414.72;2071294;28;20931;-67
2022/11/09 03:34:32;;;;;;;0.00;0.00;;;;;;;17.59;65.88;100420.97;2079050;28;20061;-67
2022/11/09 03:35:34;;;;;;;0.00;0.00;;;;;;;17.59;65.67;100420.97;2077227;28;20065;-66
2022/11/09 03:36:37;;;;;;;0.00;0.00;;;;;;;17.58;65.97;100422.16;2077070;28;20865;-67
2022/11/09 03:37:38;;;;;;;0.00;0.00;;;;;;;17.59;65.92;100415.53;2076420;28;20060;-66
2022/11/09 03:38:43;;;;;;;0.00;0.00;;;;;;;17.60;65.96;100411.63;2074735;28;20446;-66
2022/11/09 03:39:45;;;;;;;0.00;0.00;;;;;;;17.59;65.79;100412.78;2074155;28;20045;-66
2022/11/09 03:40:48;;;;;;;0.00;0.00;;;;;;;17.59;65.75;100415.53;2074780;28;20045;-66
2022/11/09 03:41:50;;;;;;;0.00;0.00;;;;;;;17.58;65.80;100412.00;2073264;28;20054;-66
2022/11/09 03:42:53;;;;;;;0.00;0.00;;;;;;;17.58;65.88;100414.72;2077417;28;20049;-66
2022/11/09 03:43:57;;;;;;;0.00;0.00;;;;;;;17.59;66.02;100410.06;2079201;28;20551;-66
2022/11/09 03:44:59;;;;;;;0.00;0.00;;;;;;;17.60;65.90;100414.38;2074980;28;20092;-65
2022/11/09 03:46:01;;;;;;;0.00;0.00;;;;;;;17.58;65.76;100412.00;2073253;28;20052;-66
2022/11/09 03:47:04;;;;;;;0.00;0.00;;;;;;;17.59;65.56;100416.31;2077727;28;20046;-66
2022/11/09 03:48:05;;;;;;;0.00;0.00;;;;;;;17.58;66.14;100413.97;2078243;28;20108;-65
2022/11/09 03:49:08;;;;;;;0.00;0.00;;;;;;;17.59;65.71;100410.06;2077676;28;20421;-67
2022/11/09 03:50:12;;;;;;;0.00;0.00;;;;;;;17.59;66.08;100418.25;2076860;28;20053;-66
2022/11/09 03:51:14;;;;;;;0.00;0.00;;;;;;;17.59;65.88;100427.22;2076494;28;20064;-67
2022/11/09 03:52:16;;;;;;;0.00;0.00;;;;;;;17.58;65.53;100425.66;2075558;28;20741;-66
2022/11/09 03:53:19;;;;;;;0.00;0.00;;;;;;;17.58;65.91;100433.09;2076726;28;20096;-67
2022/11/09 03:54:22;;;;;;;0.00;0.00;;;;;;;17.59;65.62;100431.91;2077414;28;20505;-66
2022/11/09 03:55:25;;;;;;;0.00;0.00;;;;;;;17.59;66.03;100437.34;2077096;28;20735;-66
2022/11/09 03:56:27;;;;;;;0.00;0.00;;;;;;;17.58;65.88;100442.03;2078222;28;20061;-67
2022/11/09 03:57:30;;;;;;;0.00;0.00;;;;;;;17.58;65.84;100441.28;2079239;28;20054;-66
2022/11/09 03:58:32;;;;;;;0.00;0.00;;;;;;;17.56;65.80;100438.16;2077907;28;20061;-66
2022/11/09 03:59:35;;;;;;;0.00;0.00;;;;;;;17.59;65.65;100448.28;2077444;28;20053;-66
2022/11/09 04:00:36;;;;;;;0.00;0.00;;;;;;;17.58;65.66;100449.47;2078137;28;20064;-66
2022/11/09 04:01:39;;;;;;;0.00;0.00;;;;;;;17.59;65.78;100451.00;2076276;28;20052;-66
2022/11/09 04:02:41;;;;;;;0.00;0.00;;;;;;;17.59;65.52;100461.94;2076027;28;20132;-66
2022/11/09 04:03:44;;;;;;;0.00;0.00;;;;;;;17.59;65.70;100454.53;2074228;28;20540;-66
2022/11/09 04:04:45;;;;;;;0.00;0.00;;;;;;;17.58;65.96;100455.69;2074023;28;20060;-66
2022/11/09 04:05:49;;;;;;;0.00;0.00;;;;;;;17.59;65.68;100459.19;2072670;28;20046;-66
2022/11/09 04:06:51;;;;;;;0.00;0.00;;;;;;;17.58;65.49;100458.41;2079176;28;20436;-66
2022/11/09 04:07:56;;;;;;;0.00;0.00;;;;;;;17.59;65.73;100459.19;2077583;28;20148;-66
2022/11/09 04:08:58;;;;;;;0.00;0.00;;;;;;;17.58;65.79;100460.38;2075867;28;20409;-66
2022/11/09 04:10:02;;;;;;;0.00;0.00;;;;;;;17.59;65.79;100464.66;2074218;28;20484;-66
2022/11/09 04:11:03;;;;;;;0.00;0.00;;;;;;;17.58;65.49;100446.72;2074079;28;20056;-66
2022/11/09 04:12:06;;;;;;;0.00;0.00;;;;;;;17.59;65.79;100459.19;2080289;28;20065;-65
2022/11/09 04:13:08;;;;;;;0.00;0.00;;;;;;;17.59;65.64;100470.13;2073970;28;20617;-66
2022/11/09 04:14:11;;;;;;;0.00;0.00;;;;;;;17.59;65.91;100465.44;2075433;28;20169;-66
2022/11/09 04:15:13;;;;;;;0.00;0.00;;;;;;;17.60;65.42;100466.22;2073972;28;20050;-66
2022/11/09 04:16:15;;;;;;;0.00;0.00;;;;;;;17.58;66.01;100463.88;2077092;28;20421;-66
2022/11/09 04:17:17;;;;;;;0.00;0.00;;;;;;;17.58;65.77;100471.31;2079841;28;20065;-66
2022/11/09 04:18:20;;;;;;;0.00;0.00;;;;;;;17.59;65.68;100470.13;2077878;28;20064;-66
2022/11/09 04:19:22;;;;;;;0.00;0.00;;;;;;;17.58;65.45;100474.03;2073164;28;20057;-66
2022/11/09 04:20:25;;;;;;;0.00;0.00;;;;;;;17.59;65.59;100470.13;2075538;28;20049;-66
2022/11/09 04:21:28;;;;;;;0.00;0.00;;;;;;;17.58;65.75;100471.31;2077134;28;20115;-66
2022/11/09 04:22:29;;;;;;;0.00;0.00;;;;;;;17.58;65.72;100469.31;2078137;28;20058;-66
2022/11/09 04:23:32;;;;;;;0.00;0.00;;;;;;;17.58;65.92;100468.56;2074596;28;20046;-66
2022/11/09 04:24:34;;;;;;;0.00;0.00;;;;;;;17.58;65.65;100468.56;2075112;28;20049;-66
2022/11/09 04:25:40;;;;;;;0.00;0.00;;;;;;;17.59;65.71;100478.31;2075043;28;20061;-66
2022/11/09 04:26:43;;;;;;;0.00;0.00;;;;;;;17.58;65.63;100479.50;2074683;28;20064;-67
2022/11/09 04:27:45;;;;;;;0.00;0.00;;;;;;;17.57;65.42;100477.91;2073269;28;20081;-66
2022/11/09 04:28:47;;;;;;;0.00;0.00;;;;;;;17.57;65.77;100473.25;2074462;28;20529;-66
2022/11/09 04:29:50;;;;;;;0.00;0.00;;;;;;;17.57;65.75;100464.28;2074930;28;20072;-66
2022/11/09 04:30:51;;;;;;;0.00;0.00;;;;;;;17.58;65.64;100471.31;2076587;28;20053;-66
2022/11/09 04:31:54;;;;;;;0.00;0.00;;;;;;;17.58;66.00;100468.56;2072780;28;20128;-66
2022/11/09 04:32:57;;;;;;;0.00;0.00;;;;;;;17.58;65.78;100463.09;2077249;28;20053;-67
2022/11/09 04:34:00;;;;;;;0.00;0.00;;;;;;;17.57;65.37;100465.06;2075469;28;20058;-66
2022/11/09 04:35:03;;;;;;;0.00;0.00;;;;;;;17.58;65.59;100468.56;2073616;28;20556;-66
2022/11/09 04:36:06;;;;;;;0.00;0.00;;;;;;;17.57;65.60;100472.47;2073785;28;20053;-66
2022/11/09 04:37:08;;;;;;;0.00;0.00;;;;;;;17.57;65.69;100473.25;2073640;28;20088;-67
2022/11/09 04:38:13;;;;;;;0.00;0.00;;;;;;;17.58;65.78;100468.56;2075706;28;20073;-66
2022/11/09 04:39:15;;;;;;;0.00;0.00;;;;;;;17.56;65.53;100465.44;2072379;28;20505;-66
2022/11/09 04:40:18;;;;;;;0.00;0.00;;;;;;;17.56;66.17;100471.69;2072456;28;20094;-66
2022/11/09 04:41:22;;;;;;;0.00;0.00;;;;;;;17.58;65.51;100476.75;2072335;28;20085;-67
2022/11/09 04:42:24;;;;;;;0.00;0.00;;;;;;;17.56;65.72;100473.63;2074305;28;20058;-66
2022/11/09 04:43:26;;;;;;;0.00;0.00;;;;;;;17.56;65.43;100470.91;2074962;28;20445;-66
2022/11/09 04:44:28;;;;;;;0.00;0.00;;;;;;;17.56;65.42;100473.63;2074281;28;20064;-65
2022/11/09 04:45:32;;;;;;;0.00;0.00;;;;;;;17.57;65.71;100475.19;2073434;28;20501;-66
2022/11/09 04:46:34;;;;;;;0.00;0.00;;;;;;;17.56;65.86;100466.25;2078150;28;20045;-66
2022/11/09 04:47:36;;;;;;;0.00;0.00;;;;;;;17.56;65.69;100473.63;2071462;28;20058;-65
2022/11/09 04:48:38;;;;;;;0.00;0.00;;;;;;;17.56;65.93;100470.91;2073908;28;20126;-65
2022/11/09 04:49:41;;;;;;;0.00;0.00;;;;;;;17.56;65.66;100466.25;2076672;28;20529;-65
2022/11/09 04:50:43;;;;;;;0.00;0.00;;;;;;;17.57;65.69;100464.28;2074311;28;20116;-66
2022/11/09 04:51:45;;;;;;;0.00;0.00;;;;;;;17.57;65.56;100472.47;2078660;28;20524;-65
2022/11/09 04:52:47;;;;;;;0.00;0.00;;;;;;;17.57;65.73;100472.47;2074032;28;20103;-65
2022/11/09 04:53:50;;;;;;;0.00;0.00;;;;;;;17.56;65.54;100468.97;2076016;28;20041;-66
2022/11/09 04:54:51;;;;;;;0.00;0.00;;;;;;;17.56;65.87;100470.91;2073355;28;20071;-66